sensor_id;sensor_type;location;lat;lon;timestamp;P1;durP1;ratioP1;P2;durP2;ratioP2
76236;SDS011;65038;53.200;6.530;2023-06-24T00:00:12;10.30;;;6.82;;
76236;SDS011;65038;53.200;6.530;2023-06-24T00:02:39;10.30;;;6.85;;
76236;SDS011;65038;53.200;6.530;2023-06-24T00:05:08;11.10;;;7.32;;
76236;SDS011;65038;53.200;6.530;2023-06-24T00:07:34;9.23;;;6.80;;
76236;SDS011;65038;53.200;6.530;2023-06-24T00:10:09;9.82;;;6.43;;
76236;SDS011;65038;53.200;6.530;2023-06-24T00:12:35;11.63;;;6.95;;
76236;SDS011;65038;53.200;6.530;2023-06-24T00:15:01;11.25;;;7.22;;
76236;SDS011;65038;53.200;6.530;2023-06-24T00:17:27;11.40;;;7.40;;
76236;SDS011;65038;53.200;6.530;2023-06-24T00:19:53;11.13;;;7.40;;
76236;SDS011;65038;53.200;6.530;2023-06-24T00:22:20;11.65;;;7.47;;
76236;SDS011;65038;53.200;6.530;2023-06-24T00:24:47;10.20;;;7.05;;
76236;SDS011;65038;53.200;6.530;2023-06-24T00:27:13;10.70;;;7.30;;
76236;SDS011;65038;53.200;6.530;2023-06-24T00:29:39;9.60;;;6.53;;
76236;SDS011;65038;53.200;6.530;2023-06-24T00:32:05;9.60;;;7.07;;
76236;SDS011;65038;53.200;6.530;2023-06-24T00:34:31;11.05;;;7.38;;
76236;SDS011;65038;53.200;6.530;2023-06-24T00:36:57;10.85;;;7.15;;
76236;SDS011;65038;53.200;6.530;2023-06-24T00:39:23;9.32;;;6.82;;
76236;SDS011;65038;53.200;6.530;2023-06-24T00:41:49;9.55;;;6.80;;
76236;SDS011;65038;53.200;6.530;2023-06-24T00:44:15;12.50;;;7.80;;
76236;SDS011;65038;53.200;6.530;2023-06-24T00:46:41;9.85;;;6.53;;
76236;SDS011;65038;53.200;6.530;2023-06-24T00:49:07;10.30;;;6.85;;
76236;SDS011;65038;53.200;6.530;2023-06-24T00:51:33;9.93;;;6.68;;
76236;SDS011;65038;53.200;6.530;2023-06-24T00:54:01;11.20;;;6.93;;
76236;SDS011;65038;53.200;6.530;2023-06-24T00:56:28;9.90;;;7.05;;
76236;SDS011;65038;53.200;6.530;2023-06-24T00:58:56;11.48;;;7.35;;
76236;SDS011;65038;53.200;6.530;2023-06-24T01:01:23;10.13;;;6.90;;
76236;SDS011;65038;53.200;6.530;2023-06-24T01:03:50;11.68;;;6.95;;
76236;SDS011;65038;53.200;6.530;2023-06-24T01:06:16;11.50;;;7.93;;
76236;SDS011;65038;53.200;6.530;2023-06-24T01:08:42;12.18;;;7.93;;
76236;SDS011;65038;53.200;6.530;2023-06-24T01:11:08;12.02;;;8.05;;
76236;SDS011;65038;53.200;6.530;2023-06-24T01:13:34;11.27;;;7.65;;
76236;SDS011;65038;53.200;6.530;2023-06-24T01:16:00;10.82;;;7.30;;
76236;SDS011;65038;53.200;6.530;2023-06-24T01:20:56;11.50;;;7.72;;
76236;SDS011;65038;53.200;6.530;2023-06-24T01:23:33;12.40;;;7.95;;
76236;SDS011;65038;53.200;6.530;2023-06-24T01:33:55;11.75;;;7.93;;
76236;SDS011;65038;53.200;6.530;2023-06-24T01:36:25;13.65;;;7.90;;
76236;SDS011;65038;53.200;6.530;2023-06-24T01:38:52;11.68;;;7.93;;
76236;SDS011;65038;53.200;6.530;2023-06-24T01:41:22;12.57;;;8.38;;
76236;SDS011;65038;53.200;6.530;2023-06-24T01:43:50;11.85;;;8.18;;
76236;SDS011;65038;53.200;6.530;2023-06-24T01:46:19;12.90;;;8.60;;
76236;SDS011;65038;53.200;6.530;2023-06-24T01:48:47;12.07;;;8.40;;
76236;SDS011;65038;53.200;6.530;2023-06-24T01:51:17;13.65;;;9.07;;
76236;SDS011;65038;53.200;6.530;2023-06-24T01:53:44;14.85;;;8.93;;
76236;SDS011;65038;53.200;6.530;2023-06-24T01:56:14;14.45;;;8.88;;
76236;SDS011;65038;53.200;6.530;2023-06-24T01:58:41;15.65;;;8.90;;
76236;SDS011;65038;53.200;6.530;2023-06-24T02:01:08;15.32;;;10.25;;
76236;SDS011;65038;53.200;6.530;2023-06-24T02:03:34;16.55;;;9.48;;
76236;SDS011;65038;53.200;6.530;2023-06-24T02:06:01;14.35;;;9.60;;
76236;SDS011;65038;53.200;6.530;2023-06-24T02:08:29;15.13;;;9.70;;
76236;SDS011;65038;53.200;6.530;2023-06-24T02:10:55;16.33;;;10.88;;
76236;SDS011;65038;53.200;6.530;2023-06-24T02:13:23;15.77;;;9.68;;
76236;SDS011;65038;53.200;6.530;2023-06-24T02:15:49;14.82;;;10.13;;
76236;SDS011;65038;53.200;6.530;2023-06-24T02:18:16;16.42;;;9.95;;
76236;SDS011;65038;53.200;6.530;2023-06-24T02:20:42;15.05;;;9.98;;
76236;SDS011;65038;53.200;6.530;2023-06-24T02:23:09;16.08;;;10.50;;
76236;SDS011;65038;53.200;6.530;2023-06-24T02:25:35;15.38;;;10.05;;
76236;SDS011;65038;53.200;6.530;2023-06-24T02:28:03;15.40;;;10.07;;
76236;SDS011;65038;53.200;6.530;2023-06-24T02:30:30;16.15;;;11.02;;
76236;SDS011;65038;53.200;6.530;2023-06-24T02:32:56;18.55;;;11.13;;
76236;SDS011;65038;53.200;6.530;2023-06-24T02:35:22;19.85;;;11.95;;
76236;SDS011;65038;53.200;6.530;2023-06-24T02:37:49;19.50;;;11.82;;
76236;SDS011;65038;53.200;6.530;2023-06-24T02:40:14;19.17;;;12.05;;
76236;SDS011;65038;53.200;6.530;2023-06-24T02:42:41;19.60;;;12.25;;
76236;SDS011;65038;53.200;6.530;2023-06-24T02:45:07;22.25;;;13.32;;
76236;SDS011;65038;53.200;6.530;2023-06-24T02:47:33;21.60;;;13.32;;
76236;SDS011;65038;53.200;6.530;2023-06-24T02:49:59;22.63;;;13.15;;
76236;SDS011;65038;53.200;6.530;2023-06-24T02:52:26;21.45;;;13.27;;
76236;SDS011;65038;53.200;6.530;2023-06-24T02:54:54;22.83;;;13.02;;
76236;SDS011;65038;53.200;6.530;2023-06-24T02:57:20;22.30;;;13.02;;
76236;SDS011;65038;53.200;6.530;2023-06-24T02:59:47;18.75;;;11.88;;
76236;SDS011;65038;53.200;6.530;2023-06-24T03:02:13;20.15;;;13.13;;
76236;SDS011;65038;53.200;6.530;2023-06-24T03:04:41;20.50;;;12.55;;
76236;SDS011;65038;53.200;6.530;2023-06-24T03:07:07;22.85;;;12.68;;
76236;SDS011;65038;53.200;6.530;2023-06-24T03:09:37;17.80;;;11.98;;
76236;SDS011;65038;53.200;6.530;2023-06-24T03:12:03;19.15;;;12.07;;
76236;SDS011;65038;53.200;6.530;2023-06-24T03:14:31;19.35;;;12.30;;
76236;SDS011;65038;53.200;6.530;2023-06-24T03:16:57;17.20;;;11.48;;
76236;SDS011;65038;53.200;6.530;2023-06-24T03:19:23;19.77;;;11.63;;
76236;SDS011;65038;53.200;6.530;2023-06-24T03:21:49;16.75;;;10.77;;
76236;SDS011;65038;53.200;6.530;2023-06-24T03:24:15;16.15;;;10.50;;
76236;SDS011;65038;53.200;6.530;2023-06-24T03:26:41;17.75;;;10.25;;
76236;SDS011;65038;53.200;6.530;2023-06-24T03:29:07;15.85;;;10.57;;
76236;SDS011;65038;53.200;6.530;2023-06-24T03:31:33;16.30;;;10.55;;
76236;SDS011;65038;53.200;6.530;2023-06-24T03:33:59;15.32;;;9.88;;
76236;SDS011;65038;53.200;6.530;2023-06-24T03:36:25;14.52;;;9.35;;
76236;SDS011;65038;53.200;6.530;2023-06-24T03:38:52;15.70;;;9.55;;
76236;SDS011;65038;53.200;6.530;2023-06-24T03:41:17;15.52;;;9.48;;
76236;SDS011;65038;53.200;6.530;2023-06-24T03:43:44;14.77;;;9.40;;
76236;SDS011;65038;53.200;6.530;2023-06-24T03:46:10;17.60;;;9.27;;
76236;SDS011;65038;53.200;6.530;2023-06-24T03:48:36;14.88;;;9.23;;
76236;SDS011;65038;53.200;6.530;2023-06-24T03:51:03;17.23;;;9.45;;
76236;SDS011;65038;53.200;6.530;2023-06-24T03:53:29;14.25;;;9.02;;
76236;SDS011;65038;53.200;6.530;2023-06-24T03:55:55;15.57;;;9.00;;
76236;SDS011;65038;53.200;6.530;2023-06-24T03:58:21;15.23;;;8.85;;
76236;SDS011;65038;53.200;6.530;2023-06-24T04:00:47;12.73;;;8.27;;
76236;SDS011;65038;53.200;6.530;2023-06-24T04:03:14;14.27;;;8.55;;
76236;SDS011;65038;53.200;6.530;2023-06-24T04:05:43;14.88;;;8.55;;
76236;SDS011;65038;53.200;6.530;2023-06-24T04:08:09;11.73;;;7.75;;
76236;SDS011;65038;53.200;6.530;2023-06-24T04:10:35;13.02;;;8.20;;
76236;SDS011;65038;53.200;6.530;2023-06-24T04:13:01;12.52;;;8.23;;
76236;SDS011;65038;53.200;6.530;2023-06-24T04:15:27;11.70;;;7.63;;
76236;SDS011;65038;53.200;6.530;2023-06-24T04:17:53;10.88;;;7.18;;
76236;SDS011;65038;53.200;6.530;2023-06-24T04:20:19;13.05;;;7.43;;
76236;SDS011;65038;53.200;6.530;2023-06-24T04:22:45;11.60;;;7.45;;
76236;SDS011;65038;53.200;6.530;2023-06-24T04:25:11;10.52;;;6.78;;
76236;SDS011;65038;53.200;6.530;2023-06-24T04:27:37;11.90;;;7.30;;
76236;SDS011;65038;53.200;6.530;2023-06-24T04:30:03;14.43;;;7.10;;
76236;SDS011;65038;53.200;6.530;2023-06-24T04:32:29;10.57;;;7.00;;
76236;SDS011;65038;53.200;6.530;2023-06-24T04:34:55;10.48;;;7.07;;
76236;SDS011;65038;53.200;6.530;2023-06-24T04:37:21;12.73;;;6.85;;
76236;SDS011;65038;53.200;6.530;2023-06-24T04:39:47;10.77;;;7.18;;
76236;SDS011;65038;53.200;6.530;2023-06-24T04:42:14;11.10;;;7.03;;
76236;SDS011;65038;53.200;6.530;2023-06-24T04:44:40;12.57;;;6.78;;
76236;SDS011;65038;53.200;6.530;2023-06-24T04:47:06;10.70;;;6.65;;
76236;SDS011;65038;53.200;6.530;2023-06-24T04:49:32;11.63;;;6.63;;
76236;SDS011;65038;53.200;6.530;2023-06-24T04:52:01;11.95;;;7.20;;
76236;SDS011;65038;53.200;6.530;2023-06-24T04:54:27;10.27;;;6.90;;
76236;SDS011;65038;53.200;6.530;2023-06-24T04:56:53;11.52;;;7.15;;
76236;SDS011;65038;53.200;6.530;2023-06-24T04:59:22;10.50;;;6.90;;
76236;SDS011;65038;53.200;6.530;2023-06-24T05:01:48;13.77;;;7.53;;
76236;SDS011;65038;53.200;6.530;2023-06-24T05:04:14;11.45;;;7.43;;
76236;SDS011;65038;53.200;6.530;2023-06-24T05:06:40;13.35;;;8.07;;
76236;SDS011;65038;53.200;6.530;2023-06-24T05:09:06;11.65;;;7.78;;
76236;SDS011;65038;53.200;6.530;2023-06-24T05:11:32;14.95;;;8.32;;
76236;SDS011;65038;53.200;6.530;2023-06-24T05:13:58;11.55;;;8.02;;
76236;SDS011;65038;53.200;6.530;2023-06-24T05:16:24;16.67;;;8.50;;
76236;SDS011;65038;53.200;6.530;2023-06-24T05:18:50;12.63;;;8.05;;
76236;SDS011;65038;53.200;6.530;2023-06-24T05:21:16;13.35;;;8.32;;
76236;SDS011;65038;53.200;6.530;2023-06-24T05:23:42;15.10;;;8.50;;
76236;SDS011;65038;53.200;6.530;2023-06-24T05:26:08;15.27;;;8.98;;
76236;SDS011;65038;53.200;6.530;2023-06-24T05:28:36;13.85;;;9.13;;
76236;SDS011;65038;53.200;6.530;2023-06-24T05:31:02;13.60;;;8.38;;
76236;SDS011;65038;53.200;6.530;2023-06-24T05:33:28;12.63;;;8.73;;
76236;SDS011;65038;53.200;6.530;2023-06-24T05:35:54;15.18;;;8.85;;
76236;SDS011;65038;53.200;6.530;2023-06-24T05:38:20;14.90;;;9.45;;
76236;SDS011;65038;53.200;6.530;2023-06-24T05:40:46;13.18;;;8.52;;
76236;SDS011;65038;53.200;6.530;2023-06-24T05:43:12;16.40;;;9.75;;
76236;SDS011;65038;53.200;6.530;2023-06-24T05:45:38;15.50;;;9.50;;
76236;SDS011;65038;53.200;6.530;2023-06-24T05:48:04;15.18;;;9.35;;
76236;SDS011;65038;53.200;6.530;2023-06-24T05:50:30;15.20;;;10.13;;
76236;SDS011;65038;53.200;6.530;2023-06-24T05:52:56;13.52;;;10.23;;
76236;SDS011;65038;53.200;6.530;2023-06-24T05:55:22;17.55;;;10.13;;
76236;SDS011;65038;53.200;6.530;2023-06-24T05:57:48;13.07;;;9.43;;
76236;SDS011;65038;53.200;6.530;2023-06-24T06:00:14;16.08;;;9.32;;
76236;SDS011;65038;53.200;6.530;2023-06-24T06:02:40;14.57;;;9.20;;
76236;SDS011;65038;53.200;6.530;2023-06-24T06:05:06;15.00;;;9.73;;
76236;SDS011;65038;53.200;6.530;2023-06-24T06:07:32;13.82;;;9.95;;
76236;SDS011;65038;53.200;6.530;2023-06-24T06:09:58;15.88;;;9.68;;
76236;SDS011;65038;53.200;6.530;2023-06-24T06:12:25;16.08;;;9.57;;
76236;SDS011;65038;53.200;6.530;2023-06-24T06:14:51;15.68;;;9.18;;
76236;SDS011;65038;53.200;6.530;2023-06-24T06:17:17;14.80;;;9.38;;
76236;SDS011;65038;53.200;6.530;2023-06-24T06:19:43;15.50;;;9.13;;
76236;SDS011;65038;53.200;6.530;2023-06-24T06:22:11;16.73;;;9.30;;
76236;SDS011;65038;53.200;6.530;2023-06-24T06:24:38;12.45;;;9.05;;
76236;SDS011;65038;53.200;6.530;2023-06-24T06:27:05;14.82;;;8.98;;
76236;SDS011;65038;53.200;6.530;2023-06-24T06:29:35;17.70;;;9.02;;
76236;SDS011;65038;53.200;6.530;2023-06-24T06:32:01;13.15;;;8.77;;
76236;SDS011;65038;53.200;6.530;2023-06-24T06:34:27;14.00;;;8.32;;
76236;SDS011;65038;53.200;6.530;2023-06-24T06:36:53;13.57;;;8.70;;
76236;SDS011;65038;53.200;6.530;2023-06-24T06:39:19;11.82;;;8.43;;
76236;SDS011;65038;53.200;6.530;2023-06-24T06:41:45;14.45;;;8.48;;
76236;SDS011;65038;53.200;6.530;2023-06-24T06:44:11;12.43;;;8.27;;
76236;SDS011;65038;53.200;6.530;2023-06-24T06:46:37;12.13;;;8.20;;
76236;SDS011;65038;53.200;6.530;2023-06-24T06:49:03;12.98;;;7.95;;
76236;SDS011;65038;53.200;6.530;2023-06-24T06:51:29;13.80;;;7.63;;
76236;SDS011;65038;53.200;6.530;2023-06-24T06:53:55;11.38;;;7.63;;
76236;SDS011;65038;53.200;6.530;2023-06-24T06:56:24;11.10;;;7.63;;
76236;SDS011;65038;53.200;6.530;2023-06-24T06:58:51;13.10;;;7.75;;
76236;SDS011;65038;53.200;6.530;2023-06-24T07:01:17;10.77;;;7.70;;
76236;SDS011;65038;53.200;6.530;2023-06-24T07:03:43;11.05;;;7.32;;
76236;SDS011;65038;53.200;6.530;2023-06-24T07:06:10;10.55;;;7.55;;
76236;SDS011;65038;53.200;6.530;2023-06-24T07:08:36;12.73;;;7.50;;
76236;SDS011;65038;53.200;6.530;2023-06-24T07:11:02;10.55;;;7.15;;
76236;SDS011;65038;53.200;6.530;2023-06-24T07:13:28;12.07;;;6.95;;
76236;SDS011;65038;53.200;6.530;2023-06-24T07:15:54;11.88;;;7.40;;
76236;SDS011;65038;53.200;6.530;2023-06-24T07:18:20;12.50;;;7.15;;
76236;SDS011;65038;53.200;6.530;2023-06-24T07:20:46;10.93;;;6.90;;
76236;SDS011;65038;53.200;6.530;2023-06-24T07:23:12;9.93;;;6.80;;
76236;SDS011;65038;53.200;6.530;2023-06-24T07:25:38;12.52;;;7.07;;
76236;SDS011;65038;53.200;6.530;2023-06-24T07:28:04;10.20;;;6.70;;
76236;SDS011;65038;53.200;6.530;2023-06-24T07:30:30;9.27;;;6.18;;
76236;SDS011;65038;53.200;6.530;2023-06-24T07:32:56;10.13;;;6.72;;
76236;SDS011;65038;53.200;6.530;2023-06-24T07:35:22;10.18;;;6.63;;
76236;SDS011;65038;53.200;6.530;2023-06-24T07:37:48;10.38;;;6.22;;
76236;SDS011;65038;53.200;6.530;2023-06-24T07:40:14;8.88;;;5.63;;
76236;SDS011;65038;53.200;6.530;2023-06-24T07:42:41;9.80;;;5.78;;
76236;SDS011;65038;53.200;6.530;2023-06-24T07:45:07;9.27;;;5.63;;
76236;SDS011;65038;53.200;6.530;2023-06-24T07:47:33;8.05;;;5.10;;
76236;SDS011;65038;53.200;6.530;2023-06-24T07:49:59;8.65;;;5.40;;
76236;SDS011;65038;53.200;6.530;2023-06-24T07:52:25;8.93;;;5.72;;
76236;SDS011;65038;53.200;6.530;2023-06-24T07:54:51;9.32;;;5.63;;
76236;SDS011;65038;53.200;6.530;2023-06-24T07:57:18;10.60;;;5.85;;
76236;SDS011;65038;53.200;6.530;2023-06-24T07:59:44;7.85;;;5.30;;
76236;SDS011;65038;53.200;6.530;2023-06-24T08:02:10;8.80;;;5.18;;
76236;SDS011;65038;53.200;6.530;2023-06-24T08:04:36;7.18;;;4.70;;
76236;SDS011;65038;53.200;6.530;2023-06-24T08:07:02;7.80;;;4.72;;
76236;SDS011;65038;53.200;6.530;2023-06-24T08:09:28;8.40;;;4.88;;
76236;SDS011;65038;53.200;6.530;2023-06-24T08:11:54;9.50;;;4.80;;
76236;SDS011;65038;53.200;6.530;2023-06-24T08:14:20;7.95;;;4.75;;
76236;SDS011;65038;53.200;6.530;2023-06-24T08:16:46;8.82;;;4.90;;
76236;SDS011;65038;53.200;6.530;2023-06-24T08:19:12;7.03;;;4.45;;
76236;SDS011;65038;53.200;6.530;2023-06-24T08:21:39;7.47;;;4.70;;
76236;SDS011;65038;53.200;6.530;2023-06-24T08:24:06;10.15;;;5.30;;
76236;SDS011;65038;53.200;6.530;2023-06-24T08:26:32;8.40;;;4.35;;
76236;SDS011;65038;53.200;6.530;2023-06-24T08:28:58;9.60;;;4.80;;
76236;SDS011;65038;53.200;6.530;2023-06-24T08:31:24;8.18;;;4.03;;
76236;SDS011;65038;53.200;6.530;2023-06-24T08:33:53;7.35;;;4.00;;
76236;SDS011;65038;53.200;6.530;2023-06-24T08:36:23;8.05;;;4.20;;
76236;SDS011;65038;53.200;6.530;2023-06-24T08:38:49;7.75;;;4.65;;
76236;SDS011;65038;53.200;6.530;2023-06-24T08:41:15;8.68;;;4.00;;
76236;SDS011;65038;53.200;6.530;2023-06-24T08:43:41;7.07;;;4.15;;
76236;SDS011;65038;53.200;6.530;2023-06-24T08:46:08;7.70;;;4.38;;
76236;SDS011;65038;53.200;6.530;2023-06-24T08:48:34;7.03;;;4.32;;
76236;SDS011;65038;53.200;6.530;2023-06-24T08:51:05;8.52;;;4.53;;
76236;SDS011;65038;53.200;6.530;2023-06-24T08:53:33;9.23;;;4.20;;
76236;SDS011;65038;53.200;6.530;2023-06-24T08:55:59;8.20;;;4.40;;
76236;SDS011;65038;53.200;6.530;2023-06-24T08:58:25;6.72;;;4.35;;
76236;SDS011;65038;53.200;6.530;2023-06-24T09:00:52;6.40;;;3.97;;
76236;SDS011;65038;53.200;6.530;2023-06-24T09:03:18;6.72;;;4.07;;
76236;SDS011;65038;53.200;6.530;2023-06-24T09:05:44;6.97;;;3.90;;
76236;SDS011;65038;53.200;6.530;2023-06-24T09:08:10;7.97;;;4.40;;
76236;SDS011;65038;53.200;6.530;2023-06-24T09:10:36;7.60;;;3.90;;
76236;SDS011;65038;53.200;6.530;2023-06-24T09:13:04;7.60;;;3.90;;
76236;SDS011;65038;53.200;6.530;2023-06-24T09:15:30;7.07;;;4.53;;
76236;SDS011;65038;53.200;6.530;2023-06-24T09:17:56;7.28;;;4.40;;
76236;SDS011;65038;53.200;6.530;2023-06-24T09:20:23;6.25;;;4.15;;
76236;SDS011;65038;53.200;6.530;2023-06-24T09:22:50;9.65;;;4.18;;
76236;SDS011;65038;53.200;6.530;2023-06-24T09:25:16;9.85;;;4.60;;
76236;SDS011;65038;53.200;6.530;2023-06-24T09:27:47;7.60;;;4.72;;
76236;SDS011;65038;53.200;6.530;2023-06-24T09:30:20;6.95;;;4.30;;
76236;SDS011;65038;53.200;6.530;2023-06-24T09:32:47;6.57;;;4.45;;
76236;SDS011;65038;53.200;6.530;2023-06-24T09:35:13;7.47;;;4.25;;
76236;SDS011;65038;53.200;6.530;2023-06-24T09:37:40;7.40;;;4.10;;
76236;SDS011;65038;53.200;6.530;2023-06-24T09:40:06;8.18;;;4.30;;
76236;SDS011;65038;53.200;6.530;2023-06-24T09:42:35;6.55;;;4.47;;
76236;SDS011;65038;53.200;6.530;2023-06-24T09:45:05;6.15;;;3.90;;
76236;SDS011;65038;53.200;6.530;2023-06-24T09:47:31;9.07;;;4.32;;
76236;SDS011;65038;53.200;6.530;2023-06-24T09:49:57;7.53;;;3.83;;
76236;SDS011;65038;53.200;6.530;2023-06-24T09:52:23;6.00;;;4.13;;
76236;SDS011;65038;53.200;6.530;2023-06-24T09:54:51;7.25;;;4.47;;
76236;SDS011;65038;53.200;6.530;2023-06-24T09:57:18;7.35;;;4.15;;
76236;SDS011;65038;53.200;6.530;2023-06-24T09:59:48;7.38;;;3.97;;
76236;SDS011;65038;53.200;6.530;2023-06-24T10:02:14;8.35;;;4.35;;
76236;SDS011;65038;53.200;6.530;2023-06-24T10:04:41;7.32;;;4.10;;
76236;SDS011;65038;53.200;6.530;2023-06-24T10:07:07;8.10;;;4.13;;
76236;SDS011;65038;53.200;6.530;2023-06-24T10:09:33;7.25;;;4.20;;
76236;SDS011;65038;53.200;6.530;2023-06-24T10:11:59;5.72;;;3.70;;
76236;SDS011;65038;53.200;6.530;2023-06-24T10:14:26;6.00;;;3.53;;
76236;SDS011;65038;53.200;6.530;2023-06-24T10:17:00;6.43;;;4.13;;
76236;SDS011;65038;53.200;6.530;2023-06-24T10:19:26;7.07;;;3.80;;
76236;SDS011;65038;53.200;6.530;2023-06-24T10:21:53;6.60;;;3.97;;
76236;SDS011;65038;53.200;6.530;2023-06-24T10:26:55;6.88;;;3.55;;
76236;SDS011;65038;53.200;6.530;2023-06-24T10:29:34;5.75;;;3.95;;
76236;SDS011;65038;53.200;6.530;2023-06-24T10:32:01;5.68;;;3.40;;
76236;SDS011;65038;53.200;6.530;2023-06-24T10:34:31;6.85;;;3.70;;
76236;SDS011;65038;53.200;6.530;2023-06-24T10:44:54;6.95;;;4.00;;
76236;SDS011;65038;53.200;6.530;2023-06-24T10:47:23;7.70;;;3.95;;
76236;SDS011;65038;53.200;6.530;2023-06-24T10:49:50;6.20;;;3.40;;
76236;SDS011;65038;53.200;6.530;2023-06-24T10:52:19;4.97;;;3.17;;
76236;SDS011;65038;53.200;6.530;2023-06-24T10:54:46;6.55;;;3.50;;
76236;SDS011;65038;53.200;6.530;2023-06-24T10:57:12;6.93;;;4.38;;
76236;SDS011;65038;53.200;6.530;2023-06-24T10:59:42;7.80;;;3.90;;
76236;SDS011;65038;53.200;6.530;2023-06-24T11:02:09;7.07;;;4.00;;
76236;SDS011;65038;53.200;6.530;2023-06-24T11:04:42;7.47;;;4.20;;
76236;SDS011;65038;53.200;6.530;2023-06-24T11:07:08;9.73;;;3.72;;
76236;SDS011;65038;53.200;6.530;2023-06-24T11:09:35;6.20;;;3.30;;
76236;SDS011;65038;53.200;6.530;2023-06-24T11:12:04;6.35;;;3.60;;
76236;SDS011;65038;53.200;6.530;2023-06-24T11:14:32;7.63;;;4.85;;
76236;SDS011;65038;53.200;6.530;2023-06-24T11:17:00;10.07;;;4.03;;
76236;SDS011;65038;53.200;6.530;2023-06-24T11:19:26;6.75;;;3.90;;
76236;SDS011;65038;53.200;6.530;2023-06-24T11:21:52;6.82;;;3.80;;
76236;SDS011;65038;53.200;6.530;2023-06-24T11:24:18;9.00;;;3.80;;
76236;SDS011;65038;53.200;6.530;2023-06-24T11:26:45;11.32;;;3.92;;
76236;SDS011;65038;53.200;6.530;2023-06-24T11:29:11;6.20;;;3.70;;
76236;SDS011;65038;53.200;6.530;2023-06-24T11:31:37;6.00;;;3.88;;
76236;SDS011;65038;53.200;6.530;2023-06-24T11:34:04;5.20;;;3.42;;
76236;SDS011;65038;53.200;6.530;2023-06-24T11:36:30;6.47;;;3.85;;
76236;SDS011;65038;53.200;6.530;2023-06-24T11:38:56;6.85;;;3.78;;
76236;SDS011;65038;53.200;6.530;2023-06-24T11:41:22;7.50;;;4.13;;
76236;SDS011;65038;53.200;6.530;2023-06-24T11:43:50;9.00;;;4.00;;
76236;SDS011;65038;53.200;6.530;2023-06-24T11:46:26;8.70;;;4.18;;
76236;SDS011;65038;53.200;6.530;2023-06-24T11:48:53;6.53;;;3.65;;
76236;SDS011;65038;53.200;6.530;2023-06-24T11:51:19;6.45;;;3.63;;
76236;SDS011;65038;53.200;6.530;2023-06-24T11:53:48;7.38;;;3.50;;
76236;SDS011;65038;53.200;6.530;2023-06-24T11:56:14;6.47;;;3.15;;
76236;SDS011;65038;53.200;6.530;2023-06-24T11:58:42;5.85;;;3.67;;
76236;SDS011;65038;53.200;6.530;2023-06-24T12:01:09;5.43;;;3.20;;
76236;SDS011;65038;53.200;6.530;2023-06-24T12:03:35;5.13;;;3.35;;
76236;SDS011;65038;53.200;6.530;2023-06-24T12:06:01;5.38;;;3.55;;
76236;SDS011;65038;53.200;6.530;2023-06-24T12:08:27;6.72;;;3.70;;
76236;SDS011;65038;53.200;6.530;2023-06-24T12:10:53;6.95;;;3.65;;
76236;SDS011;65038;53.200;6.530;2023-06-24T12:13:19;6.15;;;3.38;;
76236;SDS011;65038;53.200;6.530;2023-06-24T12:15:45;7.53;;;3.55;;
76236;SDS011;65038;53.200;6.530;2023-06-24T12:18:12;5.78;;;3.47;;
76236;SDS011;65038;53.200;6.530;2023-06-24T12:20:39;6.20;;;3.30;;
76236;SDS011;65038;53.200;6.530;2023-06-24T12:23:05;5.25;;;3.20;;
76236;SDS011;65038;53.200;6.530;2023-06-24T12:25:31;7.13;;;3.47;;
76236;SDS011;65038;53.200;6.530;2023-06-24T12:27:57;6.35;;;3.45;;
76236;SDS011;65038;53.200;6.530;2023-06-24T12:30:26;5.65;;;3.20;;
76236;SDS011;65038;53.200;6.530;2023-06-24T12:32:52;5.22;;;3.28;;
76236;SDS011;65038;53.200;6.530;2023-06-24T12:35:18;5.60;;;3.38;;
76236;SDS011;65038;53.200;6.530;2023-06-24T12:37:44;6.18;;;3.10;;
76236;SDS011;65038;53.200;6.530;2023-06-24T12:40:11;6.07;;;3.00;;
76236;SDS011;65038;53.200;6.530;2023-06-24T12:42:37;4.85;;;3.00;;
76236;SDS011;65038;53.200;6.530;2023-06-24T12:45:03;5.18;;;3.03;;
76236;SDS011;65038;53.200;6.530;2023-06-24T12:47:29;4.35;;;2.80;;
76236;SDS011;65038;53.200;6.530;2023-06-24T12:49:55;5.53;;;3.38;;
76236;SDS011;65038;53.200;6.530;2023-06-24T12:52:21;6.15;;;3.70;;
76236;SDS011;65038;53.200;6.530;2023-06-24T12:54:47;4.90;;;3.28;;
76236;SDS011;65038;53.200;6.530;2023-06-24T12:57:14;6.35;;;3.60;;
76236;SDS011;65038;53.200;6.530;2023-06-24T12:59:40;6.72;;;4.00;;
76236;SDS011;65038;53.200;6.530;2023-06-24T13:02:06;8.23;;;3.67;;
76236;SDS011;65038;53.200;6.530;2023-06-24T13:04:32;9.02;;;3.75;;
76236;SDS011;65038;53.200;6.530;2023-06-24T13:06:58;9.93;;;3.75;;
76236;SDS011;65038;53.200;6.530;2023-06-24T13:09:24;6.53;;;3.60;;
76236;SDS011;65038;53.200;6.530;2023-06-24T13:11:50;7.60;;;3.85;;
76236;SDS011;65038;53.200;6.530;2023-06-24T13:14:17;5.88;;;3.50;;
76236;SDS011;65038;53.200;6.530;2023-06-24T13:16:43;4.60;;;3.00;;
76236;SDS011;65038;53.200;6.530;2023-06-24T13:19:09;5.15;;;3.30;;
76236;SDS011;65038;53.200;6.530;2023-06-24T13:21:35;6.13;;;3.35;;
76236;SDS011;65038;53.200;6.530;2023-06-24T13:24:01;5.47;;;3.17;;
76236;SDS011;65038;53.200;6.530;2023-06-24T13:26:27;6.90;;;3.90;;
76236;SDS011;65038;53.200;6.530;2023-06-24T13:28:53;6.00;;;3.20;;
76236;SDS011;65038;53.200;6.530;2023-06-24T13:31:19;7.15;;;3.15;;
76236;SDS011;65038;53.200;6.530;2023-06-24T13:33:45;5.80;;;3.30;;
76236;SDS011;65038;53.200;6.530;2023-06-24T13:36:13;6.22;;;3.30;;
76236;SDS011;65038;53.200;6.530;2023-06-24T13:38:51;5.30;;;3.47;;
76236;SDS011;65038;53.200;6.530;2023-06-24T13:41:17;10.82;;;3.40;;
76236;SDS011;65038;53.200;6.530;2023-06-24T13:43:43;5.97;;;2.95;;
76236;SDS011;65038;53.200;6.530;2023-06-24T13:46:09;5.22;;;2.97;;
76236;SDS011;65038;53.200;6.530;2023-06-24T13:48:35;4.47;;;2.90;;
76236;SDS011;65038;53.200;6.530;2023-06-24T13:51:01;5.25;;;2.78;;
76236;SDS011;65038;53.200;6.530;2023-06-24T13:53:27;4.85;;;2.80;;
76236;SDS011;65038;53.200;6.530;2023-06-24T13:55:53;4.65;;;2.70;;
76236;SDS011;65038;53.200;6.530;2023-06-24T13:58:19;7.32;;;2.90;;
76236;SDS011;65038;53.200;6.530;2023-06-24T14:00:45;5.38;;;2.63;;
76236;SDS011;65038;53.200;6.530;2023-06-24T14:03:11;5.22;;;2.80;;
76236;SDS011;65038;53.200;6.530;2023-06-24T14:05:37;3.58;;;2.30;;
76236;SDS011;65038;53.200;6.530;2023-06-24T14:08:03;4.97;;;2.58;;
76236;SDS011;65038;53.200;6.530;2023-06-24T14:10:29;5.88;;;2.70;;
76236;SDS011;65038;53.200;6.530;2023-06-24T14:12:55;5.47;;;2.50;;
76236;SDS011;65038;53.200;6.530;2023-06-24T14:15:21;6.55;;;2.95;;
76236;SDS011;65038;53.200;6.530;2023-06-24T14:17:47;5.90;;;2.85;;
76236;SDS011;65038;53.200;6.530;2023-06-24T14:20:13;4.22;;;2.40;;
76236;SDS011;65038;53.200;6.530;2023-06-24T14:22:39;4.35;;;2.60;;
76236;SDS011;65038;53.200;6.530;2023-06-24T14:25:05;4.30;;;2.35;;
76236;SDS011;65038;53.200;6.530;2023-06-24T14:27:31;5.38;;;2.47;;
76236;SDS011;65038;53.200;6.530;2023-06-24T14:29:57;4.75;;;2.65;;
76236;SDS011;65038;53.200;6.530;2023-06-24T14:32:23;3.97;;;2.30;;
76236;SDS011;65038;53.200;6.530;2023-06-24T14:34:49;5.50;;;2.70;;
76236;SDS011;65038;53.200;6.530;2023-06-24T14:37:15;4.05;;;2.25;;
76236;SDS011;65038;53.200;6.530;2023-06-24T14:39:41;9.27;;;3.53;;
76236;SDS011;65038;53.200;6.530;2023-06-24T14:42:07;6.15;;;3.20;;
76236;SDS011;65038;53.200;6.530;2023-06-24T14:44:33;6.85;;;3.17;;
76236;SDS011;65038;53.200;6.530;2023-06-24T14:46:59;6.32;;;3.28;;
76236;SDS011;65038;53.200;6.530;2023-06-24T14:49:25;6.75;;;3.85;;
76236;SDS011;65038;53.200;6.530;2023-06-24T14:51:52;8.02;;;4.35;;
76236;SDS011;65038;53.200;6.530;2023-06-24T14:54:18;6.78;;;3.55;;
76236;SDS011;65038;53.200;6.530;2023-06-24T14:56:44;8.07;;;3.80;;